createdAt,value
2018-03-24T00:00:04.608Z,0.00
2018-03-24T00:01:04.561Z,0.00
2018-03-24T00:02:04.500Z,0.00
2018-03-24T00:03:04.447Z,0.00
2018-03-24T00:04:04.394Z,0.00
2018-03-24T00:05:04.341Z,0.00
2018-03-24T00:06:04.289Z,0.00
2018-03-24T00:07:04.234Z,0.00
2018-03-24T00:08:04.181Z,0.00
2018-03-24T00:09:04.137Z,0.00
2018-03-24T00:10:04.074Z,0.00
2018-03-24T00:11:04.023Z,0.00
2018-03-24T00:12:03.968Z,0.00
2018-03-24T00:13:03.917Z,0.00
2018-03-24T00:14:03.862Z,0.00
2018-03-24T00:15:03.812Z,0.00
2018-03-24T00:16:03.756Z,0.00
2018-03-24T00:17:03.706Z,0.00
2018-03-24T00:18:03.650Z,0.00
2018-03-24T00:19:03.598Z,0.00
2018-03-24T00:20:03.545Z,0.00
2018-03-24T00:21:03.491Z,0.00
2018-03-24T00:22:03.437Z,0.00
2018-03-24T00:23:03.384Z,0.00
2018-03-24T00:24:03.332Z,0.00
2018-03-24T00:25:03.283Z,0.00
2018-03-24T00:26:03.226Z,0.00
2018-03-24T00:27:03.173Z,0.00
2018-03-24T00:28:03.120Z,0.00
2018-03-24T00:29:03.068Z,0.00
2018-03-24T00:30:03.014Z,0.00
2018-03-24T00:31:02.964Z,0.00
2018-03-24T00:32:02.965Z,0.00
2018-03-24T00:33:02.907Z,0.00
2018-03-24T00:34:02.806Z,0.00
2018-03-24T00:35:02.751Z,0.00
2018-03-24T00:36:02.698Z,0.00
2018-03-24T00:37:02.645Z,0.00
2018-03-24T00:38:02.597Z,0.00
2018-03-24T00:39:02.539Z,0.00
2018-03-24T00:40:02.494Z,0.00
2018-03-24T00:41:02.434Z,0.00
2018-03-24T00:42:02.380Z,0.00
2018-03-24T00:43:02.329Z,0.00
2018-03-24T00:44:02.286Z,0.00
2018-03-24T00:45:02.273Z,0.00
2018-03-24T00:46:02.169Z,0.00
2018-03-24T00:47:02.117Z,0.00
2018-03-24T00:48:02.069Z,0.00
2018-03-24T00:49:02.014Z,0.00
2018-03-24T00:50:01.975Z,0.00
2018-03-24T00:51:01.906Z,0.00
2018-03-24T00:52:01.854Z,0.00
2018-03-24T00:53:01.803Z,0.00
2018-03-24T00:54:01.747Z,0.00
2018-03-24T00:55:01.695Z,0.00
2018-03-24T00:56:01.642Z,0.00
2018-03-24T00:57:01.590Z,0.00
2018-03-24T00:58:01.536Z,0.00
2018-03-24T00:59:01.486Z,0.00
2018-03-24T01:00:01.432Z,0.00
2018-03-24T01:01:01.379Z,0.00
2018-03-24T01:02:01.331Z,0.00
2018-03-24T01:03:01.274Z,0.00
2018-03-24T01:04:01.222Z,0.00
2018-03-24T01:05:01.169Z,0.00
2018-03-24T01:06:01.116Z,0.00
2018-03-24T01:07:01.067Z,0.00
2018-03-24T01:08:01.011Z,0.00
2018-03-24T01:09:00.959Z,0.00
2018-03-24T01:10:00.905Z,0.00
2018-03-24T01:11:00.852Z,0.00
2018-03-24T01:12:00.800Z,0.00
2018-03-24T01:13:00.751Z,0.00
2018-03-24T01:14:00.694Z,0.00
2018-03-24T01:15:00.692Z,0.00
2018-03-24T01:16:00.588Z,0.00
2018-03-24T01:17:00.536Z,0.00
2018-03-24T01:18:00.504Z,0.00
2018-03-24T01:19:00.430Z,0.00
2018-03-24T01:20:00.377Z,0.00
2018-03-24T01:21:00.324Z,0.00
2018-03-24T01:22:00.271Z,0.00
2018-03-24T01:23:00.268Z,0.00
2018-03-24T01:24:00.165Z,0.00
2018-03-24T01:25:00.113Z,0.00
2018-03-24T01:26:00.061Z,0.00
2018-03-24T01:27:00.007Z,0.00
2018-03-24T01:27:59.954Z,0.00
2018-03-24T01:28:59.907Z,0.00
2018-03-24T01:29:59.848Z,0.00
2018-03-24T01:30:59.800Z,0.00
2018-03-24T01:31:59.743Z,0.00
2018-03-24T01:32:59.689Z,0.00
2018-03-24T01:33:59.635Z,0.00
2018-03-24T01:34:59.583Z,0.00
2018-03-24T01:35:59.538Z,0.00
2018-03-24T01:36:59.478Z,0.00
2018-03-24T01:37:59.424Z,0.00
2018-03-24T01:38:59.371Z,0.00
2018-03-24T01:39:59.318Z,0.00
2018-03-24T01:40:59.266Z,0.00
2018-03-24T01:41:59.217Z,0.00
2018-03-24T01:42:59.160Z,0.00
2018-03-24T01:43:59.107Z,0.00
2018-03-24T01:44:59.054Z,0.00
2018-03-24T01:45:59.001Z,0.00
2018-03-24T01:46:58.949Z,0.00
2018-03-24T01:47:58.896Z,0.00
2018-03-24T01:48:58.844Z,0.00
2018-03-24T01:49:58.790Z,0.00
2018-03-24T01:50:58.737Z,0.00
2018-03-24T01:51:58.685Z,0.00
2018-03-24T01:52:58.632Z,0.00
2018-03-24T01:53:58.584Z,0.00
2018-03-24T01:54:58.526Z,0.00
2018-03-24T01:55:58.474Z,0.00
2018-03-24T01:56:58.421Z,0.00
2018-03-24T01:57:58.367Z,0.00
2018-03-24T01:58:58.315Z,0.00
2018-03-24T01:59:58.266Z,0.00
2018-03-24T02:00:58.209Z,0.00
2018-03-24T02:01:58.163Z,0.00
2018-03-24T02:02:58.103Z,0.00
2018-03-24T02:03:58.057Z,0.00
2018-03-24T02:04:57.999Z,0.00
2018-03-24T02:05:57.944Z,0.00
2018-03-24T02:06:57.891Z,0.00
2018-03-24T02:07:57.839Z,0.00
2018-03-24T02:08:57.785Z,0.00
2018-03-24T02:09:57.732Z,0.00
2018-03-24T02:10:57.679Z,0.00
2018-03-24T02:11:57.626Z,0.00
2018-03-24T02:12:57.573Z,0.00
2018-03-24T02:13:57.528Z,0.00
2018-03-24T02:14:57.467Z,0.00
2018-03-24T02:15:57.414Z,0.00
2018-03-24T02:16:57.362Z,0.00
2018-03-24T02:17:57.314Z,0.00
2018-03-24T02:18:57.255Z,0.00
2018-03-24T02:19:57.203Z,0.00
2018-03-24T02:20:57.149Z,0.00
2018-03-24T02:21:57.096Z,0.00
2018-03-24T02:22:57.042Z,0.00
2018-03-24T02:23:56.993Z,0.00
2018-03-24T02:24:56.937Z,0.00
2018-03-24T02:25:56.885Z,0.00
2018-03-24T02:26:56.831Z,0.00
2018-03-24T02:27:56.778Z,0.00
2018-03-24T02:28:56.726Z,0.00
2018-03-24T02:29:56.671Z,0.00
2018-03-24T02:30:56.619Z,0.00
2018-03-24T02:31:56.567Z,0.00
2018-03-24T02:32:56.514Z,0.00
2018-03-24T02:33:56.459Z,0.00
2018-03-24T02:34:56.406Z,0.00
2018-03-24T02:35:56.356Z,0.00
2018-03-24T02:36:56.303Z,0.00
2018-03-24T02:37:56.248Z,0.00
2018-03-24T02:38:56.195Z,0.00
2018-03-24T02:39:56.142Z,0.00
2018-03-24T02:40:56.089Z,0.00
2018-03-24T02:41:56.039Z,0.00
2018-03-24T02:42:55.983Z,0.00
2018-03-24T02:43:55.930Z,0.00
2018-03-24T02:44:55.876Z,0.00
2018-03-24T02:45:55.829Z,0.00
2018-03-24T02:46:55.772Z,0.00
2018-03-24T02:47:55.718Z,0.00
2018-03-24T02:48:55.666Z,0.00
2018-03-24T02:49:55.613Z,0.00
2018-03-24T02:50:55.560Z,0.00
2018-03-24T02:51:55.506Z,0.00
2018-03-24T02:52:55.455Z,0.00
2018-03-24T02:53:55.401Z,0.00
2018-03-24T02:54:55.348Z,0.00
2018-03-24T02:55:55.296Z,0.00
2018-03-24T02:56:55.244Z,0.00
2018-03-24T02:57:55.189Z,0.00
2018-03-24T02:58:55.136Z,0.00
2018-03-24T02:59:55.084Z,0.00
2018-03-24T03:00:55.032Z,0.00
2018-03-24T03:01:54.977Z,0.00
2018-03-24T03:02:54.924Z,0.00
2018-03-24T03:03:54.871Z,0.00
2018-03-24T03:04:54.819Z,0.00
2018-03-24T03:05:54.765Z,0.00
2018-03-24T03:06:54.713Z,0.00
2018-03-24T03:07:54.660Z,0.00
2018-03-24T03:08:54.613Z,0.00
2018-03-24T03:09:54.553Z,0.00
2018-03-24T03:10:54.500Z,0.00
2018-03-24T03:11:54.448Z,0.00
2018-03-24T03:12:54.448Z,0.00
2018-03-24T03:13:54.341Z,0.00
2018-03-24T03:14:54.288Z,0.00
2018-03-24T03:15:54.236Z,0.00
2018-03-24T03:16:54.183Z,0.00
2018-03-24T03:17:54.136Z,0.00
2018-03-24T03:18:54.077Z,0.00
2018-03-24T03:19:54.024Z,0.00
2018-03-24T03:20:53.971Z,0.00
2018-03-24T03:21:53.919Z,0.00
2018-03-24T03:22:53.866Z,0.00
2018-03-24T03:23:53.812Z,0.00
2018-03-24T03:24:53.760Z,0.00
2018-03-24T03:25:53.707Z,0.00
2018-03-24T03:26:53.654Z,0.00
2018-03-24T03:27:53.634Z,0.00
2018-03-24T03:28:53.548Z,0.00
2018-03-24T03:29:53.495Z,0.00
2018-03-24T03:30:53.443Z,0.00
2018-03-24T03:31:53.390Z,0.00
2018-03-24T03:32:53.338Z,0.00
2018-03-24T03:33:53.283Z,0.00
2018-03-24T03:34:53.231Z,0.00
2018-03-24T03:35:53.177Z,0.00
2018-03-24T03:36:53.125Z,0.00
2018-03-24T03:37:53.072Z,0.00
2018-03-24T03:38:53.019Z,0.00
2018-03-24T03:39:52.966Z,0.00
2018-03-24T03:40:52.914Z,0.00
2018-03-24T03:41:52.860Z,0.00
2018-03-24T03:42:52.808Z,0.00
2018-03-24T03:43:52.755Z,0.00
2018-03-24T03:44:52.702Z,0.00
2018-03-24T03:45:52.649Z,0.00
2018-03-24T03:46:52.596Z,0.00
2018-03-24T03:47:52.543Z,0.00
2018-03-24T03:48:52.491Z,0.00
2018-03-24T03:49:52.437Z,0.00
2018-03-24T03:50:52.385Z,0.00
2018-03-24T03:51:52.337Z,0.00
2018-03-24T03:52:52.295Z,0.00
2018-03-24T03:53:52.326Z,0.00
2018-03-24T03:54:52.183Z,0.00
2018-03-24T03:55:52.121Z,0.00
2018-03-24T03:56:52.068Z,0.00
2018-03-24T03:57:52.017Z,0.00
2018-03-24T03:58:51.962Z,0.00
2018-03-24T03:59:51.961Z,0.00
2018-03-24T04:00:51.857Z,0.00
2018-03-24T04:01:51.803Z,0.00
2018-03-24T04:02:51.750Z,0.00
2018-03-24T04:03:51.698Z,0.00
2018-03-24T04:04:51.645Z,0.00
2018-03-24T04:05:51.597Z,0.00
2018-03-24T04:06:51.540Z,0.00
2018-03-24T04:07:51.486Z,0.00
2018-03-24T04:08:51.433Z,0.00
2018-03-24T04:09:51.380Z,0.00
2018-03-24T04:10:51.327Z,0.00
2018-03-24T04:11:51.275Z,0.00
2018-03-24T04:12:51.222Z,0.00
2018-03-24T04:13:51.168Z,0.00
2018-03-24T04:14:51.116Z,0.00
2018-03-24T04:15:51.063Z,0.00
2018-03-24T04:16:51.010Z,0.00
2018-03-24T04:17:50.957Z,0.00
2018-03-24T04:18:50.905Z,0.00
2018-03-24T04:19:50.852Z,0.00
2018-03-24T04:20:50.799Z,0.00
2018-03-24T04:21:50.746Z,0.00
2018-03-24T04:22:50.693Z,0.00
2018-03-24T04:23:50.641Z,0.00
2018-03-24T04:24:50.639Z,0.00
2018-03-24T04:25:50.534Z,0.00
2018-03-24T04:26:50.484Z,0.00
2018-03-24T04:27:50.428Z,0.00
2018-03-24T04:28:50.378Z,0.00
2018-03-24T04:29:50.322Z,0.00
2018-03-24T04:30:50.270Z,0.00
2018-03-24T04:31:50.217Z,0.00
2018-03-24T04:32:50.164Z,0.00
2018-03-24T04:33:50.110Z,4.00
2018-03-24T04:34:50.058Z,4.00
2018-03-24T04:35:50.005Z,0.00
2018-03-24T04:36:49.952Z,4.00
2018-03-24T04:37:49.948Z,4.00
2018-03-24T04:38:49.846Z,4.00
2018-03-24T04:39:49.793Z,8.00
2018-03-24T04:40:49.740Z,4.00
2018-03-24T04:41:49.686Z,4.00
2018-03-24T04:42:49.634Z,8.00
2018-03-24T04:43:49.580Z,8.00
2018-03-24T04:44:49.528Z,12.00
2018-03-24T04:45:49.478Z,12.00
2018-03-24T04:46:49.421Z,16.00
2018-03-24T04:47:49.369Z,16.00
2018-03-24T04:48:49.316Z,20.00
2018-03-24T04:49:49.262Z,20.00
2018-03-24T04:50:49.209Z,24.00
2018-03-24T04:51:49.159Z,24.00
2018-03-24T04:52:49.154Z,28.00
2018-03-24T04:53:49.050Z,32.00
2018-03-24T04:54:48.998Z,32.00
2018-03-24T04:55:48.949Z,36.00
2018-03-24T04:56:48.892Z,40.00
2018-03-24T04:57:48.839Z,44.00
2018-03-24T04:58:48.786Z,48.00
2018-03-24T04:59:48.733Z,52.00
2018-03-24T05:00:48.681Z,56.00
2018-03-24T05:01:48.627Z,68.00
2018-03-24T05:02:48.576Z,72.00
2018-03-24T05:03:48.539Z,84.00
2018-03-24T05:04:48.471Z,88.00
2018-03-24T05:05:48.416Z,100.00
2018-03-24T05:06:48.363Z,108.00
2018-03-24T05:07:48.310Z,116.00
2018-03-24T05:08:48.257Z,128.00
2018-03-24T05:09:48.203Z,136.00
2018-03-24T05:10:48.150Z,144.00
2018-03-24T05:11:48.098Z,152.00
2018-03-24T05:12:48.045Z,156.00
2018-03-24T05:13:47.992Z,164.00
2018-03-24T05:14:47.939Z,176.00
2018-03-24T05:15:47.886Z,180.00
2018-03-24T05:16:47.833Z,188.00
2018-03-24T05:17:47.780Z,200.00
2018-03-24T05:18:47.727Z,216.00
2018-03-24T05:19:47.674Z,236.00
2018-03-24T05:20:47.624Z,252.00
2018-03-24T05:21:47.569Z,272.00
2018-03-24T05:22:47.516Z,288.00
2018-03-24T05:23:47.463Z,304.00
2018-03-24T05:24:47.411Z,324.00
2018-03-24T05:25:47.357Z,344.00
2018-03-24T05:26:47.308Z,372.00
2018-03-24T05:27:47.251Z,400.00
2018-03-24T05:28:47.199Z,420.00
2018-03-24T05:29:47.146Z,448.00
2018-03-24T05:30:47.092Z,472.00
2018-03-24T05:31:47.045Z,504.00
2018-03-24T05:32:46.988Z,540.00
2018-03-24T05:33:46.934Z,572.00
2018-03-24T05:34:46.882Z,604.00
2018-03-24T05:35:46.829Z,632.00
2018-03-24T05:36:46.777Z,656.00
2018-03-24T05:37:46.725Z,680.00
2018-03-24T05:38:46.670Z,692.00
2018-03-24T05:39:46.617Z,708.00
2018-03-24T05:40:46.565Z,736.00
2018-03-24T05:41:46.515Z,768.00
2018-03-24T05:42:46.462Z,804.00
2018-03-24T05:43:46.406Z,840.00
2018-03-24T05:44:46.504Z,872.00
2018-03-24T05:45:46.300Z,900.00
2018-03-24T05:46:46.255Z,924.00
2018-03-24T05:47:46.227Z,948.00
2018-03-24T05:48:46.252Z,964.00
2018-03-24T05:49:46.089Z,984.00
2018-03-24T05:50:46.037Z,1000.00
2018-03-24T05:51:45.984Z,1012.00
2018-03-24T05:52:45.932Z,1044.00
2018-03-24T05:53:45.879Z,1084.00
2018-03-24T05:54:45.826Z,1136.00
2018-03-24T05:55:45.773Z,1184.00
2018-03-24T05:56:45.771Z,1232.00
2018-03-24T05:57:45.669Z,1288.00
2018-03-24T05:58:45.616Z,1352.00
2018-03-24T05:59:45.563Z,1436.00
2018-03-24T06:00:45.511Z,1520.00
2018-03-24T06:01:45.457Z,1584.00
2018-03-24T06:02:45.406Z,1616.00
2018-03-24T06:03:45.353Z,1604.00
2018-03-24T06:04:45.301Z,1576.00
2018-03-24T06:05:45.248Z,1544.00
2018-03-24T06:06:45.195Z,1512.00
2018-03-24T06:07:45.143Z,1504.00
2018-03-24T06:08:45.094Z,1528.00
2018-03-24T06:09:45.038Z,1564.00
2018-03-24T06:10:44.986Z,1616.00
2018-03-24T06:11:44.983Z,1668.00
2018-03-24T06:12:44.881Z,1716.00
2018-03-24T06:13:44.828Z,1768.00
2018-03-24T06:14:44.775Z,1812.00
2018-03-24T06:15:44.723Z,1836.00
2018-03-24T06:16:44.671Z,1852.00
2018-03-24T06:17:44.618Z,1860.00
2018-03-24T06:18:44.568Z,1880.00
2018-03-24T06:19:44.513Z,1920.00
2018-03-24T06:20:44.461Z,1956.00
2018-03-24T06:21:44.408Z,2008.00
2018-03-24T06:22:44.357Z,2064.00
2018-03-24T06:23:44.315Z,2124.00
2018-03-24T06:24:44.251Z,2200.00
2018-03-24T06:25:44.199Z,2280.00
2018-03-24T06:26:44.146Z,2352.00
2018-03-24T06:27:44.096Z,2412.00
2018-03-24T06:28:44.042Z,2448.00
2018-03-24T06:29:43.994Z,2464.00
2018-03-24T06:30:43.937Z,2460.00
2018-03-24T06:31:43.885Z,2464.00
2018-03-24T06:32:43.833Z,2472.00
2018-03-24T06:33:43.779Z,2520.00
2018-03-24T06:34:43.729Z,2596.00
2018-03-24T06:35:43.676Z,2696.00
2018-03-24T06:36:43.624Z,2752.00
2018-03-24T06:37:43.571Z,2772.00
2018-03-24T06:38:43.518Z,2808.00
2018-03-24T06:39:43.467Z,2840.00
2018-03-24T06:40:43.414Z,2856.00
2018-03-24T06:41:43.363Z,2840.00
2018-03-24T06:42:43.309Z,2788.00
2018-03-24T06:43:43.258Z,2736.00
2018-03-24T06:44:43.249Z,2656.00
2018-03-24T06:45:43.153Z,2592.00
2018-03-24T06:46:43.101Z,2572.00
2018-03-24T06:47:43.050Z,2588.00
2018-03-24T06:48:42.997Z,2604.00
2018-03-24T06:49:42.948Z,2616.00
2018-03-24T06:50:42.892Z,2628.00
2018-03-24T06:51:42.840Z,2648.00
2018-03-24T06:52:42.789Z,2688.00
2018-03-24T06:53:42.741Z,2748.00
2018-03-24T06:54:42.683Z,2812.00
2018-03-24T06:55:42.631Z,2852.00
2018-03-24T06:56:42.585Z,2912.00
2018-03-24T06:57:42.526Z,2956.00
2018-03-24T06:58:42.474Z,2968.00
2018-03-24T06:59:42.423Z,3004.00
2018-03-24T07:00:42.372Z,3080.00
2018-03-24T07:01:42.320Z,3188.00
2018-03-24T07:02:42.265Z,3332.00
2018-03-24T07:03:42.214Z,3492.00
2018-03-24T07:04:42.161Z,3648.00
2018-03-24T07:05:42.108Z,3800.00
2018-03-24T07:06:42.057Z,3948.00
2018-03-24T07:07:42.007Z,4072.00
2018-03-24T07:08:41.952Z,4152.00
2018-03-24T07:09:41.898Z,4200.00
2018-03-24T07:10:41.847Z,4236.00
2018-03-24T07:11:41.795Z,4280.00
2018-03-24T07:12:41.746Z,4388.00
2018-03-24T07:13:41.691Z,4532.00
2018-03-24T07:14:41.640Z,4660.00
2018-03-24T07:15:41.589Z,4756.00
2018-03-24T07:16:41.535Z,4820.00
2018-03-24T07:17:41.483Z,4912.00
2018-03-24T07:18:41.431Z,5060.00
2018-03-24T07:19:41.380Z,5236.00
2018-03-24T07:20:41.327Z,5448.00
2018-03-24T07:21:41.275Z,5712.00
2018-03-24T07:22:41.223Z,5964.00
2018-03-24T07:23:41.171Z,6172.00
2018-03-24T07:24:41.120Z,6260.00
2018-03-24T07:25:41.067Z,6288.00
2018-03-24T07:26:41.015Z,6324.00
2018-03-24T07:27:40.964Z,6344.00
2018-03-24T07:28:40.912Z,6420.00
2018-03-24T07:29:40.859Z,6504.00
2018-03-24T07:30:40.808Z,6576.00
2018-03-24T07:31:40.756Z,6632.00
2018-03-24T07:32:40.710Z,6640.00
2018-03-24T07:33:40.653Z,6644.00
2018-03-24T07:34:40.612Z,6708.00
2018-03-24T07:35:40.550Z,6780.00
2018-03-24T07:36:40.498Z,6892.00
2018-03-24T07:37:40.446Z,7000.00
2018-03-24T07:38:40.394Z,6940.00
2018-03-24T07:39:40.343Z,6840.00
2018-03-24T07:40:40.297Z,6744.00
2018-03-24T07:41:40.244Z,6580.00
2018-03-24T07:42:40.188Z,6456.00
2018-03-24T07:43:40.137Z,6264.00
2018-03-24T07:44:40.086Z,6052.00
2018-03-24T07:45:40.033Z,6052.00
2018-03-24T07:46:39.982Z,6008.00
2018-03-24T07:47:39.990Z,5892.00
2018-03-24T07:48:39.880Z,5824.00
2018-03-24T07:49:39.827Z,5776.00
2018-03-24T07:50:39.781Z,5736.00
2018-03-24T07:51:39.728Z,5724.00
2018-03-24T07:52:39.675Z,5604.00
2018-03-24T07:53:39.622Z,5472.00
2018-03-24T07:54:39.571Z,5352.00
2018-03-24T07:55:39.521Z,5320.00
2018-03-24T07:56:39.469Z,5368.00
2018-03-24T07:57:39.417Z,5396.00
2018-03-24T07:58:39.422Z,5388.00
2018-03-24T07:59:39.315Z,5416.00
2018-03-24T08:00:39.263Z,5504.00
2018-03-24T08:01:39.211Z,5652.00
2018-03-24T08:02:39.160Z,5884.00
2018-03-24T08:03:39.111Z,6072.00
2018-03-24T08:04:39.108Z,6136.00
2018-03-24T08:05:39.006Z,6096.00
2018-03-24T08:06:38.955Z,6056.00
2018-03-24T08:07:38.904Z,6032.00
2018-03-24T08:08:38.853Z,6056.00
2018-03-24T08:09:38.852Z,6200.00
2018-03-24T08:10:38.750Z,6392.00
2018-03-24T08:11:38.699Z,6584.00
2018-03-24T08:12:38.650Z,6832.00
2018-03-24T08:13:38.596Z,7092.00
2018-03-24T08:14:38.545Z,7368.00
2018-03-24T08:15:38.494Z,7612.00
2018-03-24T08:16:38.443Z,7568.00
2018-03-24T08:17:38.391Z,7316.00
2018-03-24T08:18:38.340Z,7028.00
2018-03-24T08:19:38.289Z,6708.00
2018-03-24T08:20:38.238Z,6452.00
2018-03-24T08:21:38.186Z,6444.00
2018-03-24T08:22:38.135Z,6520.00
2018-03-24T08:23:38.086Z,6524.00
2018-03-24T08:24:38.033Z,6576.00
2018-03-24T08:25:37.981Z,6688.00
2018-03-24T08:26:37.930Z,6816.00
2018-03-24T08:27:37.879Z,6864.00
2018-03-24T08:28:37.828Z,6920.00
2018-03-24T08:29:37.776Z,7092.00
2018-03-24T08:30:37.725Z,7272.00
2018-03-24T08:31:37.676Z,7352.00
2018-03-24T08:32:37.624Z,7384.00
2018-03-24T08:33:37.572Z,7384.00
2018-03-24T08:34:37.521Z,7392.00
2018-03-24T08:35:37.471Z,7424.00
2018-03-24T08:36:37.420Z,7420.00
2018-03-24T08:37:37.367Z,7412.00
2018-03-24T08:38:37.319Z,7504.00
2018-03-24T08:39:37.267Z,7632.00
2018-03-24T08:40:37.216Z,7780.00
2018-03-24T08:41:37.165Z,7888.00
2018-03-24T08:42:37.114Z,8052.00
2018-03-24T08:43:37.063Z,8292.00
2018-03-24T08:44:37.064Z,8492.00
2018-03-24T08:45:36.961Z,8584.00
2018-03-24T08:46:36.914Z,8628.00
2018-03-24T08:47:36.861Z,8732.00
2018-03-24T08:48:36.812Z,8792.00
2018-03-24T08:49:36.759Z,8664.00
2018-03-24T08:50:36.709Z,8504.00
2018-03-24T08:51:36.659Z,8484.00
2018-03-24T08:52:36.615Z,8368.00
2018-03-24T08:53:36.557Z,8212.00
2018-03-24T08:54:36.508Z,8072.00
2018-03-24T08:55:36.458Z,7884.00
2018-03-24T08:56:36.459Z,7704.00
2018-03-24T08:57:36.357Z,7820.00
2018-03-24T08:58:36.307Z,8188.00
2018-03-24T08:59:36.256Z,8572.00
2018-03-24T09:00:36.207Z,8972.00
2018-03-24T09:01:36.156Z,9188.00
2018-03-24T09:02:36.106Z,9100.00
2018-03-24T09:03:36.057Z,8944.00
2018-03-24T09:04:36.007Z,8940.00
2018-03-24T09:05:35.955Z,9036.00
2018-03-24T09:06:35.908Z,9064.00
2018-03-24T09:07:35.856Z,9008.00
2018-03-24T09:08:35.806Z,8932.00
2018-03-24T09:09:35.756Z,9008.00
2018-03-24T09:10:35.708Z,9052.00
2018-03-24T09:11:35.657Z,9076.00
2018-03-24T09:12:35.607Z,9268.00
2018-03-24T09:13:35.557Z,9584.00
2018-03-24T09:14:35.507Z,10052.00
2018-03-24T09:15:35.458Z,10456.00
2018-03-24T09:16:35.409Z,10732.00
2018-03-24T09:17:35.358Z,10948.00
2018-03-24T09:18:35.310Z,11228.00
2018-03-24T09:19:35.259Z,11576.00
2018-03-24T09:20:35.210Z,11820.00
2018-03-24T09:21:35.159Z,11892.00
2018-03-24T09:22:35.113Z,11764.00
2018-03-24T09:23:35.061Z,11836.00
2018-03-24T09:24:35.013Z,12136.00
2018-03-24T09:25:34.961Z,12216.00
2018-03-24T09:26:34.913Z,11980.00
2018-03-24T09:27:34.866Z,12112.00
2018-03-24T09:28:34.813Z,12600.00
2018-03-24T09:29:34.763Z,12808.00
2018-03-24T09:30:34.714Z,12600.00
2018-03-24T09:31:34.666Z,11988.00
2018-03-24T09:32:34.616Z,11392.00
2018-03-24T09:33:34.567Z,11268.00
2018-03-24T09:34:34.518Z,11392.00
2018-03-24T09:35:34.469Z,11744.00
2018-03-24T09:36:34.420Z,11976.00
2018-03-24T09:37:34.370Z,12200.00
2018-03-24T09:38:34.321Z,12456.00
2018-03-24T09:39:34.273Z,12500.00
2018-03-24T09:40:34.225Z,12460.00
2018-03-24T09:41:34.174Z,15632.00
2018-03-24T09:42:34.125Z,12928.00
2018-03-24T09:43:34.077Z,13060.00
2018-03-24T09:44:34.028Z,13060.00
2018-03-24T09:45:33.979Z,12812.00
2018-03-24T09:46:33.930Z,12860.00
2018-03-24T09:47:33.882Z,13044.00
2018-03-24T09:48:33.837Z,13116.00
2018-03-24T09:49:33.786Z,12904.00
2018-03-24T09:50:33.734Z,12804.00
2018-03-24T09:51:33.687Z,13028.00
2018-03-24T09:52:33.641Z,13380.00
2018-03-24T09:53:33.592Z,13744.00
2018-03-24T09:54:33.538Z,13988.00
2018-03-24T09:55:33.490Z,14048.00
2018-03-24T09:56:33.448Z,14000.00
2018-03-24T09:57:33.398Z,13820.00
2018-03-24T09:58:33.344Z,13528.00
2018-03-24T09:59:33.296Z,13392.00
2018-03-24T10:00:33.247Z,13380.00
2018-03-24T10:01:33.198Z,13316.00
2018-03-24T10:02:33.149Z,13356.00
2018-03-24T10:03:33.101Z,13448.00
2018-03-24T10:04:33.053Z,13912.00
2018-03-24T10:05:33.004Z,14372.00
2018-03-24T10:06:32.961Z,14588.00
2018-03-24T10:07:32.908Z,14564.00
2018-03-24T10:08:32.858Z,14432.00
2018-03-24T10:09:32.809Z,14240.00
2018-03-24T10:10:32.760Z,13836.00
2018-03-24T10:11:32.712Z,13668.00
2018-03-24T10:12:32.665Z,13552.00
2018-03-24T10:13:32.616Z,13364.00
2018-03-24T10:14:32.565Z,13172.00
2018-03-24T10:15:32.518Z,13104.00
2018-03-24T10:16:32.469Z,13076.00
2018-03-24T10:17:32.424Z,13148.00
2018-03-24T10:18:32.404Z,13160.00
2018-03-24T10:19:32.325Z,13236.00
2018-03-24T10:20:32.273Z,13364.00
2018-03-24T10:21:32.226Z,13488.00
2018-03-24T10:22:32.218Z,13680.00
2018-03-24T10:23:32.129Z,13816.00
2018-03-24T10:24:32.078Z,14024.00
2018-03-24T10:25:32.029Z,14164.00
2018-03-24T10:26:31.981Z,14420.00
2018-03-24T10:27:31.932Z,14796.00
2018-03-24T10:28:31.884Z,14856.00
2018-03-24T10:29:31.835Z,14808.00
2018-03-24T10:30:31.786Z,14724.00
2018-03-24T10:31:31.737Z,14420.00
2018-03-24T10:32:31.690Z,14108.00
2018-03-24T10:33:31.645Z,13844.00
2018-03-24T10:34:31.592Z,13928.00
2018-03-24T10:35:31.544Z,14408.00
2018-03-24T10:36:31.496Z,14748.00
2018-03-24T10:37:31.446Z,15096.00
2018-03-24T10:38:31.398Z,15292.00
2018-03-24T10:39:31.353Z,15208.00
2018-03-24T10:40:31.307Z,15040.00
2018-03-24T10:41:31.296Z,14824.00
2018-03-24T10:42:31.203Z,14688.00
2018-03-24T10:43:31.156Z,15052.00
2018-03-24T10:44:31.107Z,15452.00
2018-03-24T10:45:31.059Z,15744.00
2018-03-24T10:46:31.010Z,15652.00
2018-03-24T10:47:30.963Z,15568.00
2018-03-24T10:48:30.915Z,15640.00
2018-03-24T10:49:30.870Z,15476.00
2018-03-24T10:50:30.819Z,15176.00
2018-03-24T10:51:30.773Z,14804.00
2018-03-24T10:52:30.722Z,14440.00
2018-03-24T10:53:30.676Z,14196.00
2018-03-24T10:54:30.627Z,14476.00
2018-03-24T10:55:30.579Z,14628.00
2018-03-24T10:56:30.531Z,14472.00
2018-03-24T10:57:30.534Z,14280.00
2018-03-24T10:58:30.438Z,13880.00
2018-03-24T10:59:30.389Z,13664.00
2018-03-24T11:00:30.341Z,13156.00
2018-03-24T11:01:30.294Z,11916.00
2018-03-24T11:02:30.246Z,11328.00
2018-03-24T11:03:30.199Z,11328.00
2018-03-24T11:04:30.152Z,11756.00
2018-03-24T11:05:30.107Z,12440.00
2018-03-24T11:06:30.057Z,12856.00
2018-03-24T11:07:30.010Z,12784.00
2018-03-24T11:08:29.964Z,12492.00
2018-03-24T11:09:29.914Z,12120.00
2018-03-24T11:10:29.867Z,11148.00
2018-03-24T11:11:29.819Z,9652.00
2018-03-24T11:12:29.771Z,8552.00
2018-03-24T11:13:29.723Z,8264.00
2018-03-24T11:14:29.674Z,8216.00
2018-03-24T11:15:29.647Z,8328.00
2018-03-24T11:16:29.580Z,8540.00
2018-03-24T11:17:29.530Z,8712.00
2018-03-24T11:18:29.482Z,8884.00
2018-03-24T11:19:29.434Z,9112.00
2018-03-24T11:20:29.386Z,9492.00
2018-03-24T11:21:29.338Z,9872.00
2018-03-24T11:22:29.289Z,10284.00
2018-03-24T11:23:29.240Z,10724.00
2018-03-24T11:24:29.192Z,11144.00
2018-03-24T11:25:29.149Z,11248.00
2018-03-24T11:26:29.141Z,11024.00
2018-03-24T11:27:29.046Z,10620.00
2018-03-24T11:28:29.000Z,10592.00
2018-03-24T11:29:28.948Z,10816.00
2018-03-24T11:30:28.903Z,11180.00
2018-03-24T11:31:28.852Z,11620.00
2018-03-24T11:32:28.803Z,12048.00
2018-03-24T11:33:28.754Z,11824.00
2018-03-24T11:34:28.706Z,11436.00
2018-03-24T11:35:28.657Z,11240.00
2018-03-24T11:36:28.609Z,10952.00
2018-03-24T11:37:28.561Z,10744.00
2018-03-24T11:38:28.513Z,10528.00
2018-03-24T11:39:28.465Z,10528.00
2018-03-24T11:40:28.417Z,10688.00
2018-03-24T11:41:28.368Z,11028.00
2018-03-24T11:42:28.319Z,11496.00
2018-03-24T11:43:28.272Z,11896.00
2018-03-24T11:44:28.223Z,12156.00
2018-03-24T11:45:28.175Z,12172.00
2018-03-24T11:46:28.127Z,11844.00
2018-03-24T11:47:28.079Z,11112.00
2018-03-24T11:48:28.031Z,10732.00
2018-03-24T11:49:27.983Z,10752.00
2018-03-24T11:50:27.935Z,10752.00
2018-03-24T11:51:27.886Z,10680.00
2018-03-24T11:52:27.839Z,10680.00
2018-03-24T11:53:27.790Z,10768.00
2018-03-24T11:54:27.741Z,10856.00
2018-03-24T11:55:27.695Z,10936.00
2018-03-24T11:56:27.647Z,10836.00
2018-03-24T11:57:27.597Z,10548.00
2018-03-24T11:58:27.549Z,10288.00
2018-03-24T11:59:27.501Z,10108.00
2018-03-24T12:00:27.454Z,10080.00
2018-03-24T12:01:27.405Z,10168.00
2018-03-24T12:02:27.357Z,10396.00
2018-03-24T12:03:27.310Z,10692.00
2018-03-24T12:04:27.262Z,10812.00
2018-03-24T12:05:27.213Z,10780.00
2018-03-24T12:06:27.165Z,10724.00
2018-03-24T12:07:27.119Z,10704.00
2018-03-24T12:08:27.074Z,10760.00
2018-03-24T12:09:27.072Z,10912.00
2018-03-24T12:10:26.972Z,10928.00
2018-03-24T12:11:26.925Z,10752.00
2018-03-24T12:12:26.935Z,10776.00
2018-03-24T12:13:26.828Z,10352.00
2018-03-24T12:14:26.781Z,10044.00
2018-03-24T12:15:26.733Z,9824.00
2018-03-24T12:16:26.697Z,9672.00
2018-03-24T12:17:26.638Z,9568.00
2018-03-24T12:18:26.590Z,9824.00
2018-03-24T12:19:26.545Z,9820.00
2018-03-24T12:20:26.492Z,9816.00
2018-03-24T12:21:26.444Z,9704.00
2018-03-24T12:22:26.396Z,9580.00
2018-03-24T12:23:26.349Z,9584.00
2018-03-24T12:24:26.302Z,9604.00
2018-03-24T12:25:26.251Z,9712.00
2018-03-24T12:26:26.204Z,9876.00
2018-03-24T12:27:26.155Z,9960.00
2018-03-24T12:28:26.107Z,10152.00